Time;durP1;ratioP1;P1;durP2;ratioP2;P2;SDS_P1;SDS_P2;PMS_P1;PMS_P2;Temp;Humidity;BMP_temperature;BMP_pressure;BME280_temperature;BME280_humidity;BME280_pressure;Samples;Min_cycle;Max_cycle;Signal;HPM_P1;HPM_P2
2023/03/15 00:01:29;;;;;;;1.27;0.70;;;;;;;;;;5076007;28;20267;-62
2023/03/15 00:03:56;;;;;;;0.37;0.37;;;;;;;;;;5072788;28;20285;-62
2023/03/15 00:06:23;;;;;;;1.17;0.70;;;;;;;;;;5079274;28;20268;-61
2023/03/15 00:08:50;;;;;;;3.20;0.30;;;;;;;;;;5077464;28;20205;-62
2023/03/15 00:11:19;;;;;;;1.37;0.37;;;;;;;;;;5069564;28;20210;-61
2023/03/15 00:13:46;;;;;;;0.37;0.37;;;;;;;;;;5063864;28;20198;-62
2023/03/15 00:16:16;;;;;;;2.17;0.60;;;;;;;;;;5074910;28;20275;-61
2023/03/15 00:18:43;;;;;;;0.40;0.40;;;;;;;;;;5081629;28;20688;-61
2023/03/15 00:21:10;;;;;;;1.70;0.37;;;;;;;;;;5077230;28;20271;-61
2023/03/15 00:23:37;;;;;;;2.43;0.40;;;;;;;;;;5076168;28;20222;-62
2023/03/15 00:26:05;;;;;;;3.70;0.57;;;;;;;;;;5069439;28;20223;-61
2023/03/15 00:28:33;;;;;;;2.10;0.60;;;;;;;;;;5079077;28;20209;-62
2023/03/15 00:31:04;;;;;;;2.00;0.63;;;;;;;;;;5072491;28;20271;-61
2023/03/15 00:33:33;;;;;;;2.30;0.40;;;;;;;;;;5083018;28;20206;-62
2023/03/15 00:36:02;;;;;;;2.23;0.70;;;;;;;;;;5079603;28;20263;-61
2023/03/15 00:38:29;;;;;;;4.50;0.33;;;;;;;;;;5082775;28;20607;-62
2023/03/15 00:40:56;;;;;;;0.40;0.20;;;;;;;;;;5080899;28;20199;-62
2023/03/15 00:43:23;;;;;;;3.17;0.40;;;;;;;;;;5063722;28;20230;-62
2023/03/15 00:45:52;;;;;;;5.17;0.33;;;;;;;;;;5075961;28;20546;-61
2023/03/15 00:48:19;;;;;;;1.60;0.60;;;;;;;;;;5061492;28;20196;-62
2023/03/15 00:50:46;;;;;;;0.83;0.50;;;;;;;;;;5074857;28;20909;-61
2023/03/15 00:53:13;;;;;;;0.47;0.47;;;;;;;;;;5086531;28;20264;-62
2023/03/15 00:55:41;;;;;;;3.77;0.60;;;;;;;;;;5073695;28;20719;-66
2023/03/15 00:58:08;;;;;;;0.33;0.33;;;;;;;;;;5070479;28;20217;-62
2023/03/15 01:00:37;;;;;;;0.27;0.27;;;;;;;;;;5088269;28;20210;-62
2023/03/15 01:03:05;;;;;;;0.93;0.63;;;;;;;;;;5082411;28;20229;-62
2023/03/15 01:05:32;;;;;;;9.77;0.97;;;;;;;;;;5070234;28;21116;-62
2023/03/15 01:08:01;;;;;;;1.30;0.53;;;;;;;;;;5071013;28;20276;-62
2023/03/15 01:10:29;;;;;;;0.70;0.30;;;;;;;;;;5073967;28;20263;-62
2023/03/15 01:12:56;;;;;;;0.60;0.60;;;;;;;;;;5087504;28;20246;-62
2023/03/15 01:15:23;;;;;;;2.00;0.40;;;;;;;;;;5079270;28;20723;-62
2023/03/15 01:17:50;;;;;;;3.17;0.30;;;;;;;;;;5077408;28;20210;-62
2023/03/15 01:20:18;;;;;;;5.93;1.20;;;;;;;;;;5064692;28;20197;-62
2023/03/15 01:22:45;;;;;;;0.30;0.30;;;;;;;;;;5053968;28;20693;-62
2023/03/15 01:25:13;;;;;;;0.30;0.30;;;;;;;;;;5082502;28;20204;-62
2023/03/15 01:27:40;;;;;;;0.30;0.30;;;;;;;;;;5072016;28;20253;-62
2023/03/15 01:30:07;;;;;;;3.10;0.53;;;;;;;;;;5076481;28;20207;-61
2023/03/15 01:32:34;;;;;;;4.37;0.53;;;;;;;;;;5085927;28;20200;-61
2023/03/15 01:35:01;;;;;;;1.03;0.40;;;;;;;;;;5077005;28;20211;-62
2023/03/15 01:37:30;;;;;;;1.17;0.30;;;;;;;;;;5077785;28;20203;-62
2023/03/15 01:39:57;;;;;;;0.30;0.30;;;;;;;;;;5070771;28;20205;-62
2023/03/15 01:42:24;;;;;;;4.43;0.50;;;;;;;;;;5075669;28;20858;-62
2023/03/15 01:44:52;;;;;;;0.30;0.30;;;;;;;;;;5069897;28;20202;-62
2023/03/15 01:47:19;;;;;;;0.20;0.20;;;;;;;;;;5069730;28;20216;-62
2023/03/15 01:49:47;;;;;;;0.20;0.20;;;;;;;;;;5072433;28;20195;-62
2023/03/15 01:52:16;;;;;;;1.03;0.40;;;;;;;;;;5067836;28;20207;-62
2023/03/15 01:54:47;;;;;;;2.20;0.33;;;;;;;;;;5077812;28;20207;-62
2023/03/15 01:57:16;;;;;;;1.37;0.90;;;;;;;;;;5078894;28;20357;-62
2023/03/15 01:59:45;;;;;;;3.40;0.30;;;;;;;;;;5067610;28;20204;-62
2023/03/15 02:02:13;;;;;;;0.43;0.43;;;;;;;;;;5083696;28;20214;-62
2023/03/15 02:04:45;;;;;;;2.83;0.40;;;;;;;;;;5076421;28;20203;-61
2023/03/15 02:07:13;;;;;;;0.30;0.10;;;;;;;;;;5066725;28;20206;-61
2023/03/15 02:09:44;;;;;;;4.90;0.23;;;;;;;;;;5066912;28;20218;-61
2023/03/15 02:12:12;;;;;;;4.90;0.33;;;;;;;;;;5074222;28;20210;-61
2023/03/15 02:14:41;;;;;;;0.40;0.40;;;;;;;;;;5072282;28;20692;-61
2023/03/15 02:17:08;;;;;;;0.77;0.70;;;;;;;;;;5080928;28;20225;-61
2023/03/15 02:19:42;;;;;;;0.80;0.43;;;;;;;;;;5074718;28;20198;-61
2023/03/15 02:22:15;;;;;;;1.60;0.37;;;;;;;;;;5085218;28;20908;-61
2023/03/15 02:24:47;;;;;;;0.20;0.20;;;;;;;;;;5086034;28;20206;-61
2023/03/15 02:27:15;;;;;;;4.90;0.57;;;;;;;;;;5063855;28;20202;-61
2023/03/15 02:29:44;;;;;;;0.30;0.30;;;;;;;;;;5068605;28;20199;-61
2023/03/15 02:32:11;;;;;;;0.83;0.40;;;;;;;;;;5079508;28;20226;-61
2023/03/15 02:34:38;;;;;;;2.47;0.47;;;;;;;;;;5076253;28;20600;-61
2023/03/15 02:37:05;;;;;;;0.67;0.53;;;;;;;;;;5084635;28;20209;-61
2023/03/15 02:39:32;;;;;;;1.30;0.53;;;;;;;;;;5075881;28;20501;-61
2023/03/15 02:42:00;;;;;;;0.43;0.23;;;;;;;;;;5071479;28;20211;-61
2023/03/15 02:44:28;;;;;;;1.27;0.80;;;;;;;;;;5084807;28;20787;-61
2023/03/15 02:47:00;;;;;;;0.40;0.40;;;;;;;;;;5070294;28;20207;-61
2023/03/15 02:49:28;;;;;;;0.30;0.30;;;;;;;;;;5047939;28;20231;-61
2023/03/15 02:51:55;;;;;;;0.40;0.40;;;;;;;;;;5072424;28;20199;-61
2023/03/15 02:54:22;;;;;;;0.37;0.23;;;;;;;;;;5068497;28;20274;-61
2023/03/15 02:56:50;;;;;;;0.30;0.30;;;;;;;;;;5068715;28;20203;-61
2023/03/15 02:59:17;;;;;;;4.27;0.80;;;;;;;;;;5072928;28;20195;-61
2023/03/15 03:01:44;;;;;;;1.17;0.30;;;;;;;;;;5084264;28;20208;-61
2023/03/15 03:04:13;;;;;;;0.87;0.50;;;;;;;;;;5085081;28;20775;-61
2023/03/15 03:06:42;;;;;;;0.43;0.40;;;;;;;;;;5078935;28;20279;-61
2023/03/15 03:09:09;;;;;;;0.17;0.17;;;;;;;;;;5087973;28;20572;-61
2023/03/15 03:11:36;;;;;;;1.97;0.80;;;;;;;;;;5078205;28;20211;-61
2023/03/15 03:14:03;;;;;;;0.97;0.77;;;;;;;;;;5076200;28;20199;-61
2023/03/15 03:16:31;;;;;;;0.30;0.30;;;;;;;;;;5066356;28;20214;-61
2023/03/15 03:18:58;;;;;;;0.53;0.33;;;;;;;;;;5068054;28;20239;-61
2023/03/15 03:21:27;;;;;;;0.50;0.50;;;;;;;;;;5076992;28;20233;-61
2023/03/15 03:23:54;;;;;;;0.53;0.40;;;;;;;;;;5080198;28;20592;-61
2023/03/15 03:26:26;;;;;;;1.70;0.50;;;;;;;;;;5068558;28;20674;-61
2023/03/15 03:28:53;;;;;;;5.40;0.60;;;;;;;;;;5072929;28;20294;-61
2023/03/15 03:31:22;;;;;;;2.93;0.50;;;;;;;;;;5081851;28;20202;-61
2023/03/15 03:33:49;;;;;;;0.40;0.40;;;;;;;;;;5073427;28;20203;-61
2023/03/15 03:36:16;;;;;;;1.10;0.23;;;;;;;;;;5081391;28;20724;-61
2023/03/15 03:38:45;;;;;;;4.10;0.40;;;;;;;;;;5073799;28;20234;-61
2023/03/15 03:41:13;;;;;;;0.40;0.40;;;;;;;;;;5082039;28;20213;-61
2023/03/15 03:43:41;;;;;;;2.13;0.60;;;;;;;;;;5069674;28;20219;-61
2023/03/15 03:46:08;;;;;;;1.30;0.70;;;;;;;;;;5079349;28;20217;-61
2023/03/15 03:48:35;;;;;;;3.27;0.63;;;;;;;;;;5077364;28;20619;-61
2023/03/15 03:51:02;;;;;;;5.70;0.30;;;;;;;;;;5067955;28;20203;-61
2023/03/15 03:53:29;;;;;;;1.47;0.60;;;;;;;;;;5068806;28;20210;-61
2023/03/15 03:55:57;;;;;;;2.90;0.40;;;;;;;;;;5080571;28;20229;-61
2023/03/15 03:58:24;;;;;;;5.33;0.43;;;;;;;;;;5071940;28;20441;-60
2023/03/15 04:00:53;;;;;;;2.23;0.80;;;;;;;;;;5078759;28;20198;-61
2023/03/15 04:03:26;;;;;;;2.40;0.40;;;;;;;;;;5080798;28;20309;-61
2023/03/15 04:05:53;;;;;;;2.00;0.60;;;;;;;;;;5081747;28;20738;-61
2023/03/15 04:08:20;;;;;;;2.20;0.50;;;;;;;;;;5072396;28;20647;-61
2023/03/15 04:10:50;;;;;;;0.30;0.30;;;;;;;;;;5076980;28;20211;-61
2023/03/15 04:13:18;;;;;;;0.13;0.13;;;;;;;;;;5079012;28;20207;-62
2023/03/15 04:15:45;;;;;;;0.40;0.30;;;;;;;;;;5078810;28;20194;-61
2023/03/15 04:18:12;;;;;;;1.40;0.67;;;;;;;;;;5091533;28;20203;-61
2023/03/15 04:20:45;;;;;;;0.83;0.30;;;;;;;;;;5084731;28;20246;-61
2023/03/15 04:23:12;;;;;;;0.23;0.23;;;;;;;;;;5077314;28;20229;-61
2023/03/15 04:25:39;;;;;;;0.97;0.80;;;;;;;;;;5079397;28;20212;-61
2023/03/15 04:28:09;;;;;;;2.93;0.40;;;;;;;;;;5089264;28;20216;-61
2023/03/15 04:30:38;;;;;;;0.10;0.10;;;;;;;;;;5083894;28;20289;-61
2023/03/15 04:33:05;;;;;;;3.60;0.40;;;;;;;;;;5072674;28;20764;-62
2023/03/15 04:35:34;;;;;;;0.27;0.27;;;;;;;;;;5079083;28;20232;-61
2023/03/15 04:38:02;;;;;;;4.00;0.40;;;;;;;;;;5071601;28;20230;-61
2023/03/15 04:40:33;;;;;;;4.33;0.40;;;;;;;;;;5075505;28;20296;-61
2023/03/15 04:43:01;;;;;;;3.30;0.40;;;;;;;;;;5078034;28;20241;-61
2023/03/15 04:45:29;;;;;;;0.23;0.23;;;;;;;;;;5065205;28;20220;-61
2023/03/15 04:47:58;;;;;;;1.47;0.43;;;;;;;;;;5087012;28;20294;-61
2023/03/15 04:50:25;;;;;;;0.50;0.40;;;;;;;;;;5086152;28;20207;-61
2023/03/15 04:52:52;;;;;;;1.30;0.83;;;;;;;;;;5071448;28;20214;-61
2023/03/15 04:55:19;;;;;;;0.73;0.50;;;;;;;;;;5078819;28;20198;-61
2023/03/15 04:57:46;;;;;;;0.53;0.40;;;;;;;;;;5085379;28;20207;-61
2023/03/15 05:00:13;;;;;;;1.50;0.47;;;;;;;;;;5068588;28;20912;-61
2023/03/15 05:02:41;;;;;;;0.30;0.30;;;;;;;;;;5073791;28;20198;-61
2023/03/15 05:05:10;;;;;;;0.80;0.43;;;;;;;;;;5076742;28;20317;-61
2023/03/15 05:07:37;;;;;;;0.30;0.30;;;;;;;;;;5088419;28;20209;-61
2023/03/15 05:10:05;;;;;;;0.60;0.60;;;;;;;;;;5079729;28;20672;-61
2023/03/15 05:12:33;;;;;;;0.33;0.33;;;;;;;;;;5069826;28;20207;-62
2023/03/15 05:15:00;;;;;;;0.30;0.30;;;;;;;;;;5078914;28;20259;-61
2023/03/15 05:17:27;;;;;;;0.87;0.70;;;;;;;;;;5086432;28;20202;-61
2023/03/15 05:19:54;;;;;;;1.27;0.50;;;;;;;;;;5073488;28;20218;-61
2023/03/15 05:22:24;;;;;;;0.43;0.43;;;;;;;;;;5070126;28;20219;-61
2023/03/15 05:24:52;;;;;;;0.33;0.33;;;;;;;;;;5079333;28;20305;-61
2023/03/15 05:27:19;;;;;;;0.50;0.50;;;;;;;;;;5075249;28;20266;-61
2023/03/15 05:29:52;;;;;;;3.20;0.60;;;;;;;;;;5079159;28;20205;-61
2023/03/15 05:32:25;;;;;;;0.60;0.40;;;;;;;;;;5056977;28;20216;-61
2023/03/15 05:34:54;;;;;;;0.20;0.20;;;;;;;;;;5068874;28;20210;-62
2023/03/15 05:37:22;;;;;;;0.20;0.20;;;;;;;;;;5069695;28;20294;-61
2023/03/15 05:39:49;;;;;;;4.17;0.63;;;;;;;;;;5087441;28;20237;-61
2023/03/15 05:42:20;;;;;;;0.40;0.33;;;;;;;;;;5085332;28;20621;-61
2023/03/15 05:44:48;;;;;;;2.90;0.27;;;;;;;;;;5072744;28;20248;-61
2023/03/15 05:47:15;;;;;;;0.30;0.30;;;;;;;;;;5068837;28;20257;-62
2023/03/15 05:49:42;;;;;;;0.53;0.37;;;;;;;;;;5083952;28;20203;-61
2023/03/15 05:52:10;;;;;;;1.70;0.40;;;;;;;;;;5078217;28;20647;-61
2023/03/15 05:54:38;;;;;;;1.37;0.83;;;;;;;;;;5074388;28;20201;-61
2023/03/15 05:57:05;;;;;;;0.47;0.43;;;;;;;;;;5076317;28;20948;-61
2023/03/15 05:59:32;;;;;;;0.43;0.40;;;;;;;;;;5068752;28;20224;-61
2023/03/15 06:01:59;;;;;;;0.93;0.50;;;;;;;;;;5064637;28;20215;-61
2023/03/15 06:04:27;;;;;;;1.43;1.17;;;;;;;;;;5085619;28;20730;-60
2023/03/15 06:06:54;;;;;;;3.03;1.27;;;;;;;;;;5088368;28;20694;-61
2023/03/15 06:09:21;;;;;;;0.87;0.57;;;;;;;;;;5088517;28;20288;-60
2023/03/15 06:11:49;;;;;;;1.10;0.77;;;;;;;;;;5072817;28;20217;-63
2023/03/15 06:14:16;;;;;;;0.60;0.60;;;;;;;;;;5071365;28;20683;-61
2023/03/15 06:16:43;;;;;;;0.60;0.60;;;;;;;;;;5069234;28;20714;-60
2023/03/15 06:19:10;;;;;;;0.60;0.60;;;;;;;;;;5068692;28;20210;-61
2023/03/15 06:21:37;;;;;;;0.90;0.90;;;;;;;;;;5073110;28;20226;-60
2023/03/15 06:24:06;;;;;;;4.13;1.60;;;;;;;;;;5081853;28;20725;-61
2023/03/15 06:26:33;;;;;;;2.07;1.23;;;;;;;;;;5078951;28;20301;-60
2023/03/15 06:29:01;;;;;;;2.07;1.37;;;;;;;;;;5087114;28;20665;-61
2023/03/15 06:31:28;;;;;;;4.20;1.37;;;;;;;;;;5072297;28;20199;-68
2023/03/15 06:33:55;;;;;;;1.63;1.57;;;;;;;;;;5066668;28;20261;-61
2023/03/15 06:36:23;;;;;;;1.27;0.60;;;;;;;;;;5068356;28;20199;-61
2023/03/15 06:38:52;;;;;;;4.87;1.27;;;;;;;;;;5066370;28;20586;-61
2023/03/15 06:41:20;;;;;;;6.73;1.33;;;;;;;;;;5068258;28;20219;-61
2023/03/15 06:43:47;;;;;;;0.97;0.80;;;;;;;;;;5068424;28;20206;-61
2023/03/15 06:46:16;;;;;;;5.03;1.60;;;;;;;;;;5068285;28;20218;-61
2023/03/15 06:48:43;;;;;;;5.70;1.73;;;;;;;;;;5067989;28;20215;-61
2023/03/15 06:51:10;;;;;;;1.60;1.17;;;;;;;;;;5062810;28;20211;-61
2023/03/15 06:53:37;;;;;;;2.67;1.40;;;;;;;;;;5066184;28;20323;-61
2023/03/15 06:56:04;;;;;;;1.37;1.30;;;;;;;;;;5068079;28;20213;-61
2023/03/15 06:58:31;;;;;;;1.90;1.20;;;;;;;;;;5068082;28;20217;-61
2023/03/15 07:00:58;;;;;;;1.03;0.83;;;;;;;;;;5067767;28;20237;-61
2023/03/15 07:03:27;;;;;;;1.87;1.23;;;;;;;;;;5067968;28;20624;-61
2023/03/15 07:05:54;;;;;;;1.43;1.43;;;;;;;;;;5067990;28;20234;-61
2023/03/15 07:08:21;;;;;;;4.83;1.80;;;;;;;;;;5067624;28;20214;-61
2023/03/15 07:10:49;;;;;;;2.60;1.40;;;;;;;;;;5067887;28;20219;-61
2023/03/15 07:13:16;;;;;;;1.53;1.13;;;;;;;;;;5068017;28;20217;-61
2023/03/15 07:15:43;;;;;;;2.07;1.83;;;;;;;;;;5067773;28;20281;-61
2023/03/15 07:18:10;;;;;;;3.80;1.63;;;;;;;;;;5067771;28;20215;-59
2023/03/15 07:20:38;;;;;;;1.23;1.23;;;;;;;;;;5067944;28;20215;-61
2023/03/15 07:23:05;;;;;;;1.33;1.23;;;;;;;;;;5067503;28;20238;-60
2023/03/15 07:25:32;;;;;;;4.47;2.30;;;;;;;;;;5067303;28;20230;-59
2023/03/15 07:27:59;;;;;;;3.90;1.40;;;;;;;;;;5067621;28;20676;-59
2023/03/15 07:30:26;;;;;;;2.10;1.67;;;;;;;;;;5066942;28;20206;-59
2023/03/15 07:32:53;;;;;;;3.60;1.47;;;;;;;;;;5067187;28;20585;-60
2023/03/15 07:35:20;;;;;;;1.57;1.10;;;;;;;;;;5067720;28;20211;-60
2023/03/15 07:37:50;;;;;;;4.87;1.20;;;;;;;;;;5070556;28;20288;-60
2023/03/15 07:40:17;;;;;;;1.80;1.13;;;;;;;;;;5071505;28;20580;-61
2023/03/15 07:42:44;;;;;;;2.40;1.53;;;;;;;;;;5071747;28;20215;-61
2023/03/15 07:45:12;;;;;;;2.97;0.93;;;;;;;;;;5071218;28;20288;-60
2023/03/15 07:47:39;;;;;;;8.07;1.23;;;;;;;;;;5070809;28;20697;-61
2023/03/15 07:50:07;;;;;;;1.23;0.80;;;;;;;;;;5070807;28;20664;-61
2023/03/15 07:52:34;;;;;;;0.70;0.70;;;;;;;;;;5070401;28;20700;-60
2023/03/15 07:55:03;;;;;;;1.23;1.10;;;;;;;;;;5070056;28;20203;-60
2023/03/15 07:57:31;;;;;;;1.20;1.10;;;;;;;;;;5070983;28;20213;-60
2023/03/15 07:59:58;;;;;;;1.70;0.97;;;;;;;;;;5070008;28;20617;-60
2023/03/15 08:02:25;;;;;;;1.73;1.20;;;;;;;;;;5069914;28;20203;-61
2023/03/15 08:04:52;;;;;;;1.40;0.63;;;;;;;;;;5066838;28;20227;-60
2023/03/15 08:07:19;;;;;;;4.80;1.37;;;;;;;;;;5069899;28;20237;-61
2023/03/15 08:09:47;;;;;;;6.03;1.07;;;;;;;;;;5069839;28;20213;-61
2023/03/15 08:12:15;;;;;;;1.50;0.97;;;;;;;;;;5070652;28;20676;-61
2023/03/15 08:14:42;;;;;;;6.70;1.10;;;;;;;;;;5077424;28;20220;-61
2023/03/15 08:17:11;;;;;;;0.50;0.50;;;;;;;;;;5090564;28;20213;-60
2023/03/15 08:19:39;;;;;;;3.37;1.37;;;;;;;;;;5076210;28;20298;-61
2023/03/15 08:22:06;;;;;;;0.80;0.80;;;;;;;;;;5069731;28;20283;-60
2023/03/15 08:24:33;;;;;;;1.30;0.90;;;;;;;;;;5069793;28;20228;-61
2023/03/15 08:27:00;;;;;;;2.80;1.10;;;;;;;;;;5070178;28;20232;-60
2023/03/15 08:29:28;;;;;;;1.53;1.27;;;;;;;;;;5070493;28;20459;-60
2023/03/15 08:31:55;;;;;;;6.80;1.47;;;;;;;;;;5069868;28;20216;-61
2023/03/15 08:34:22;;;;;;;2.00;1.13;;;;;;;;;;5081396;28;20266;-64
2023/03/15 08:36:50;;;;;;;0.80;0.80;;;;;;;;;;5069804;28;20211;-63
2023/03/15 08:39:17;;;;;;;1.67;1.10;;;;;;;;;;5078802;28;20719;-61
2023/03/15 08:41:44;;;;;;;3.60;1.07;;;;;;;;;;5090076;28;20716;-61
2023/03/15 08:44:11;;;;;;;5.20;1.13;;;;;;;;;;5076548;28;20232;-61
2023/03/15 08:46:40;;;;;;;4.87;1.60;;;;;;;;;;5070527;28;20210;-62
2023/03/15 08:49:07;;;;;;;1.97;1.63;;;;;;;;;;5080132;28;20255;-61
2023/03/15 08:51:34;;;;;;;4.27;1.47;;;;;;;;;;5090080;28;20214;-61
2023/03/15 08:54:03;;;;;;;0.80;0.80;;;;;;;;;;5087817;28;20198;-61
2023/03/15 08:56:31;;;;;;;2.13;1.17;;;;;;;;;;5089856;28;20202;-61
2023/03/15 08:58:58;;;;;;;2.97;1.20;;;;;;;;;;5080594;28;20226;-61
2023/03/15 09:01:25;;;;;;;1.37;1.00;;;;;;;;;;5069563;28;20865;-61
2023/03/15 09:03:54;;;;;;;2.07;0.90;;;;;;;;;;5077296;28;20210;-61
2023/03/15 09:06:21;;;;;;;0.90;0.90;;;;;;;;;;5089679;28;20241;-61
2023/03/15 09:08:48;;;;;;;7.50;1.40;;;;;;;;;;5082749;28;20636;-61
2023/03/15 09:11:15;;;;;;;1.00;1.00;;;;;;;;;;5069159;28;20207;-61
2023/03/15 09:13:42;;;;;;;3.67;1.03;;;;;;;;;;5076051;28;20210;-61
2023/03/15 09:16:09;;;;;;;2.13;1.17;;;;;;;;;;5087724;28;20201;-62
2023/03/15 09:18:36;;;;;;;2.30;0.87;;;;;;;;;;5087861;28;20264;-61
2023/03/15 09:21:05;;;;;;;0.90;0.90;;;;;;;;;;5082997;28;20731;-61
2023/03/15 09:23:32;;;;;;;3.50;0.93;;;;;;;;;;5068912;28;20203;-61
2023/03/15 09:25:59;;;;;;;1.00;1.00;;;;;;;;;;5073728;28;20279;-62
2023/03/15 09:28:26;;;;;;;2.30;1.00;;;;;;;;;;5089301;28;20710;-61
2023/03/15 09:30:54;;;;;;;0.70;0.70;;;;;;;;;;5085211;28;20734;-61
2023/03/15 09:33:21;;;;;;;1.70;1.60;;;;;;;;;;5068717;28;20214;-61
2023/03/15 09:35:48;;;;;;;1.00;1.00;;;;;;;;;;5071061;28;20206;-61
2023/03/15 09:38:16;;;;;;;2.63;1.20;;;;;;;;;;5088707;28;20631;-61
2023/03/15 09:40:45;;;;;;;1.00;1.00;;;;;;;;;;5087344;28;20233;-61
2023/03/15 09:43:32;;;;;;;2.63;1.03;;;;;;;;;;5068804;28;20218;-61
2023/03/15 09:46:05;;;;;;;1.30;1.27;;;;;;;;;;5048500;28;20647;-62
2023/03/15 09:48:36;;;;;;;1.17;1.10;;;;;;;;;;5048657;28;20556;-62
2023/03/15 09:51:06;;;;;;;1.70;1.10;;;;;;;;;;5048565;28;20216;-61
2023/03/15 09:53:37;;;;;;;0.80;0.80;;;;;;;;;;5048569;28;20718;-61
2023/03/15 09:56:11;;;;;;;4.33;1.20;;;;;;;;;;5088513;28;20630;-61
2023/03/15 09:58:39;;;;;;;0.90;0.90;;;;;;;;;;5086410;28;20214;-62
2023/03/15 10:01:07;;;;;;;0.80;0.80;;;;;;;;;;5063695;28;20203;-61
2023/03/15 10:03:36;;;;;;;0.80;0.80;;;;;;;;;;5065694;28;20211;-62
2023/03/15 10:06:06;;;;;;;1.40;1.13;;;;;;;;;;5086230;28;20226;-60
2023/03/15 10:08:33;;;;;;;2.13;0.97;;;;;;;;;;5086041;28;20287;-61
2023/03/15 10:11:07;;;;;;;2.97;1.00;;;;;;;;;;5071606;28;20297;-60
2023/03/15 10:13:41;;;;;;;1.00;1.00;;;;;;;;;;5068440;28;20206;-60
2023/03/15 10:16:15;;;;;;;0.97;0.93;;;;;;;;;;5087862;28;20701;-61
2023/03/15 10:18:50;;;;;;;1.03;1.00;;;;;;;;;;5084071;28;20195;-60
2023/03/15 10:21:23;;;;;;;0.90;0.90;;;;;;;;;;5072235;28;20280;-61
2023/03/15 10:23:51;;;;;;;0.60;0.60;;;;;;;;;;5077310;28;20856;-61
2023/03/15 10:26:21;;;;;;;1.17;0.87;;;;;;;;;;5067744;28;20223;-63
2023/03/15 10:28:49;;;;;;;0.87;0.70;;;;;;;;;;5067701;28;20207;-62
2023/03/15 10:31:18;;;;;;;1.27;0.70;;;;;;;;;;5066347;28;20237;-62
2023/03/15 10:33:46;;;;;;;0.53;0.53;;;;;;;;;;5064834;28;20231;-60
2023/03/15 10:36:15;;;;;;;0.57;0.57;;;;;;;;;;5054683;28;20216;-63
2023/03/15 10:38:43;;;;;;;0.70;0.70;;;;;;;;;;5059847;28;20312;-60
2023/03/15 10:41:12;;;;;;;1.33;0.60;;;;;;;;;;5046185;28;20329;-60
2023/03/15 10:43:41;;;;;;;0.80;0.70;;;;;;;;;;5071260;28;20238;-60
2023/03/15 10:46:10;;;;;;;0.50;0.50;;;;;;;;;;5063352;28;20230;-61
2023/03/15 10:48:37;;;;;;;1.13;0.57;;;;;;;;;;5064065;28;20211;-61
2023/03/15 10:51:05;;;;;;;0.53;0.53;;;;;;;;;;5046316;28;20204;-60
2023/03/15 10:53:33;;;;;;;0.40;0.40;;;;;;;;;;5071819;28;20207;-61
2023/03/15 10:56:01;;;;;;;0.40;0.40;;;;;;;;;;5059842;28;20309;-60
2023/03/15 10:58:30;;;;;;;2.80;0.90;;;;;;;;;;5067524;28;20207;-60
2023/03/15 11:01:06;;;;;;;0.50;0.50;;;;;;;;;;5056395;28;20222;-60
2023/03/15 11:03:33;;;;;;;0.60;0.60;;;;;;;;;;5062910;28;20210;-61
2023/03/15 11:06:01;;;;;;;0.50;0.50;;;;;;;;;;5056197;28;20235;-61
2023/03/15 11:08:37;;;;;;;0.60;0.60;;;;;;;;;;5051989;28;20681;-61
2023/03/15 11:11:04;;;;;;;0.77;0.77;;;;;;;;;;5056669;28;20773;-61
2023/03/15 11:13:31;;;;;;;0.70;0.70;;;;;;;;;;5060877;28;20666;-64
2023/03/15 11:16:04;;;;;;;0.77;0.77;;;;;;;;;;5060316;28;20221;-61
2023/03/15 11:18:33;;;;;;;0.80;0.80;;;;;;;;;;5059209;28;20638;-61
2023/03/15 11:21:00;;;;;;;0.50;0.50;;;;;;;;;;5045747;28;20729;-61
2023/03/15 11:23:29;;;;;;;0.47;0.47;;;;;;;;;;5062335;28;20330;-61
2023/03/15 11:25:56;;;;;;;0.73;0.70;;;;;;;;;;5060249;28;20663;-61
2023/03/15 11:28:26;;;;;;;0.40;0.40;;;;;;;;;;5075011;28;20754;-61
2023/03/15 11:30:53;;;;;;;0.53;0.53;;;;;;;;;;5051804;28;20215;-60
2023/03/15 11:33:35;;;;;;;0.53;0.53;;;;;;;;;;5067823;28;20249;-60
2023/03/15 11:36:05;;;;;;;0.63;0.63;;;;;;;;;;5060455;28;20229;-60
2023/03/15 11:38:34;;;;;;;0.60;0.60;;;;;;;;;;5052961;28;20243;-61
2023/03/15 11:41:03;;;;;;;0.77;0.77;;;;;;;;;;5064009;28;20218;-60
2023/03/15 11:43:35;;;;;;;0.80;0.80;;;;;;;;;;5060770;28;20203;-61
2023/03/15 11:46:04;;;;;;;1.33;0.80;;;;;;;;;;5045801;28;20230;-61
2023/03/15 11:48:35;;;;;;;0.60;0.60;;;;;;;;;;5054762;28;20211;-61
2023/03/15 11:51:03;;;;;;;1.03;0.80;;;;;;;;;;5055113;28;20217;-60
2023/03/15 11:53:34;;;;;;;0.93;0.60;;;;;;;;;;5061895;28;20200;-61
2023/03/15 11:56:19;;;;;;;0.50;0.50;;;;;;;;;;5057089;28;20220;-61
2023/03/15 11:59:02;;;;;;;0.80;0.77;;;;;;;;;;5060249;28;20203;-61
2023/03/15 12:01:29;;;;;;;0.50;0.50;;;;;;;;;;5059099;28;20202;-60
2023/03/15 12:04:11;;;;;;;0.50;0.50;;;;;;;;;;5061500;28;20226;-61
2023/03/15 12:06:40;;;;;;;0.63;0.53;;;;;;;;;;5045549;28;20232;-61
2023/03/15 12:09:22;;;;;;;2.60;0.60;;;;;;;;;;5067618;28;20210;-60
2023/03/15 12:11:49;;;;;;;0.50;0.50;;;;;;;;;;5055971;28;20467;-62
2023/03/15 12:14:26;;;;;;;0.70;0.70;;;;;;;;;;5060303;28;20657;-62
2023/03/15 12:16:57;;;;;;;0.53;0.53;;;;;;;;;;5068248;28;20217;-62
2023/03/15 12:19:25;;;;;;;0.60;0.60;;;;;;;;;;5067751;28;20234;-61
2023/03/15 12:21:54;;;;;;;0.60;0.60;;;;;;;;;;5055113;28;20226;-61
2023/03/15 12:24:24;;;;;;;0.70;0.70;;;;;;;;;;5053884;28;20284;-61
2023/03/15 12:26:58;;;;;;;1.30;1.20;;;;;;;;;;5062439;28;20231;-61
2023/03/15 12:29:27;;;;;;;0.80;0.80;;;;;;;;;;5070252;28;20242;-61
2023/03/15 12:31:58;;;;;;;0.90;0.87;;;;;;;;;;5089688;28;20210;-61
2023/03/15 12:34:28;;;;;;;0.50;0.50;;;;;;;;;;5069416;28;20199;-61
2023/03/15 12:36:59;;;;;;;0.93;0.93;;;;;;;;;;5064907;28;20286;-61
2023/03/15 12:39:38;;;;;;;1.33;1.27;;;;;;;;;;5073806;28;20295;-62
2023/03/15 12:42:05;;;;;;;0.50;0.50;;;;;;;;;;5067677;28;20206;-61
2023/03/15 12:44:39;;;;;;;0.60;0.60;;;;;;;;;;5072578;28;20214;-61
2023/03/15 12:47:07;;;;;;;1.30;0.70;;;;;;;;;;5079317;28;20257;-61
2023/03/15 12:49:35;;;;;;;0.77;0.77;;;;;;;;;;5069088;28;20204;-61
2023/03/15 12:52:05;;;;;;;1.07;1.07;;;;;;;;;;5072077;28;20565;-61
2023/03/15 12:54:37;;;;;;;1.00;0.87;;;;;;;;;;5072289;28;20680;-61
2023/03/15 12:57:06;;;;;;;0.70;0.70;;;;;;;;;;5069327;28;20614;-60
2023/03/15 12:59:36;;;;;;;0.80;0.80;;;;;;;;;;5072965;28;20221;-60
2023/03/15 13:02:04;;;;;;;0.93;0.90;;;;;;;;;;5073656;28;20206;-60
2023/03/15 13:04:31;;;;;;;3.43;0.90;;;;;;;;;;5068839;28;20219;-60
2023/03/15 13:07:03;;;;;;;0.70;0.70;;;;;;;;;;5072131;28;20230;-60
2023/03/15 13:09:42;;;;;;;1.23;0.80;;;;;;;;;;5073241;28;20198;-60
2023/03/15 13:12:11;;;;;;;2.30;0.90;;;;;;;;;;5078656;28;20195;-60
2023/03/15 13:14:42;;;;;;;0.83;0.83;;;;;;;;;;5070838;28;20237;-60
2023/03/15 13:17:16;;;;;;;2.43;0.50;;;;;;;;;;5067762;28;20210;-60
2023/03/15 13:19:45;;;;;;;0.80;0.80;;;;;;;;;;5067044;28;20294;-60
2023/03/15 13:22:15;;;;;;;0.70;0.70;;;;;;;;;;5068916;28;20241;-62
2023/03/15 13:24:48;;;;;;;1.20;0.80;;;;;;;;;;5060762;28;20214;-60
2023/03/15 13:27:22;;;;;;;0.60;0.60;;;;;;;;;;5067578;28;20233;-60
2023/03/15 13:29:49;;;;;;;0.50;0.50;;;;;;;;;;5063819;28;20298;-60
2023/03/15 13:32:17;;;;;;;0.73;0.73;;;;;;;;;;5066979;28;20236;-60
2023/03/15 13:34:48;;;;;;;0.60;0.60;;;;;;;;;;5074244;28;21038;-60
2023/03/15 13:37:17;;;;;;;0.60;0.60;;;;;;;;;;5071072;28;20641;-61
2023/03/15 13:39:56;;;;;;;0.40;0.40;;;;;;;;;;5071957;28;20202;-60
2023/03/15 13:42:24;;;;;;;0.23;0.23;;;;;;;;;;5074219;28;20210;-60
2023/03/15 13:45:10;;;;;;;0.80;0.40;;;;;;;;;;5070754;28;20950;-60
2023/03/15 13:47:37;;;;;;;0.50;0.50;;;;;;;;;;5071713;28;20345;-60
2023/03/15 13:50:05;;;;;;;0.50;0.50;;;;;;;;;;5069176;28;20202;-59
2023/03/15 13:52:33;;;;;;;2.00;0.60;;;;;;;;;;5069356;28;20203;-59
2023/03/15 13:55:02;;;;;;;0.33;0.33;;;;;;;;;;5067631;28;20269;-60
2023/03/15 13:57:29;;;;;;;0.67;0.63;;;;;;;;;;5071303;28;20264;-59
2023/03/15 13:59:59;;;;;;;0.40;0.40;;;;;;;;;;5056897;28;20214;-60
2023/03/15 14:02:29;;;;;;;0.67;0.67;;;;;;;;;;5064166;28;20225;-60
2023/03/15 14:04:58;;;;;;;0.60;0.60;;;;;;;;;;5069521;28;20205;-60
2023/03/15 14:07:26;;;;;;;0.63;0.63;;;;;;;;;;5069241;28;20227;-61
2023/03/15 14:10:12;;;;;;;0.40;0.40;;;;;;;;;;5069836;28;20203;-59
2023/03/15 14:12:40;;;;;;;0.60;0.60;;;;;;;;;;5080454;28;20210;-59
2023/03/15 14:15:15;;;;;;;0.50;0.50;;;;;;;;;;5069548;28;20210;-61
2023/03/15 14:17:51;;;;;;;0.57;0.57;;;;;;;;;;5067062;28;20190;-59
2023/03/15 14:20:18;;;;;;;1.03;0.60;;;;;;;;;;5075807;28;20259;-59
2023/03/15 14:22:45;;;;;;;0.63;0.53;;;;;;;;;;5073723;28;20229;-60
2023/03/15 14:25:19;;;;;;;2.90;0.50;;;;;;;;;;5073818;28;20223;-59
2023/03/15 14:27:48;;;;;;;1.00;0.53;;;;;;;;;;5067370;28;20633;-60
2023/03/15 14:30:19;;;;;;;1.40;0.67;;;;;;;;;;5063139;28;20207;-61
2023/03/15 14:32:51;;;;;;;0.67;0.67;;;;;;;;;;5073780;28;20952;-61
2023/03/15 14:35:21;;;;;;;1.67;0.50;;;;;;;;;;5070938;28;20716;-61
2023/03/15 14:37:48;;;;;;;0.93;0.70;;;;;;;;;;5080064;28;20229;-61
2023/03/15 14:40:20;;;;;;;0.60;0.60;;;;;;;;;;5071380;28;20209;-66
2023/03/15 14:42:49;;;;;;;0.60;0.60;;;;;;;;;;5073947;28;20289;-61
2023/03/15 14:45:28;;;;;;;5.20;1.10;;;;;;;;;;5069102;28;20582;-60
2023/03/15 14:47:58;;;;;;;3.20;0.80;;;;;;;;;;5074114;28;20218;-61
2023/03/15 14:50:26;;;;;;;0.60;0.60;;;;;;;;;;5077384;28;20547;-61
2023/03/15 14:52:54;;;;;;;0.67;0.67;;;;;;;;;;5068373;28;20338;-61